createdAt,value
2022-08-05T00:00:50.184Z,15.90
2022-08-05T00:03:17.856Z,15.90
2022-08-05T00:06:05.388Z,15.70
2022-08-05T00:08:35.426Z,15.60
2022-08-05T00:11:07.541Z,15.60
2022-08-05T00:13:53.194Z,15.60
2022-08-05T00:16:35.282Z,15.50
2022-08-05T00:19:03.323Z,15.50
2022-08-05T00:21:30.851Z,15.50
2022-08-05T00:24:10.493Z,15.40
2022-08-05T00:26:39.170Z,15.40
2022-08-05T00:29:17.185Z,15.30
2022-08-05T00:32:10.176Z,15.30
2022-08-05T00:34:55.584Z,15.20
2022-08-05T00:37:20.315Z,15.10
2022-08-05T00:39:57.815Z,15.10
2022-08-05T00:42:34.663Z,15.10
2022-08-05T00:45:03.529Z,15.10
2022-08-05T00:47:31.768Z,15.00
2022-08-05T00:50:18.731Z,15.10
2022-08-05T00:52:48.354Z,14.90
2022-08-05T00:55:15.633Z,14.90
2022-08-05T00:57:55.319Z,14.80
2022-08-05T01:00:25.986Z,14.80
2022-08-05T01:02:53.770Z,14.80
2022-08-05T01:05:21.172Z,14.90
2022-08-05T01:08:40.028Z,14.90
2022-08-05T01:10:52.716Z,14.90
2022-08-05T01:13:59.578Z,14.80
2022-08-05T01:16:39.168Z,14.80
2022-08-05T01:19:20.579Z,14.80
2022-08-05T01:22:24.050Z,14.70
2022-08-05T01:25:24.344Z,14.70
2022-08-05T01:28:17.393Z,14.60
2022-08-05T01:31:15.838Z,14.60
2022-08-05T01:33:48.903Z,14.50
2022-08-05T01:36:20.939Z,14.50
2022-08-05T01:38:50.889Z,14.60
2022-08-05T01:41:21.655Z,14.60
2022-08-05T01:43:51.958Z,14.60
2022-08-05T01:46:41.340Z,14.60
2022-08-05T01:49:23.025Z,14.60
2022-08-05T01:51:56.216Z,14.50
2022-08-05T01:54:30.804Z,14.40
2022-08-05T01:58:10.297Z,14.40
2022-08-05T01:59:51.338Z,14.40
2022-08-05T02:02:26.229Z,14.40
2022-08-05T02:05:01.218Z,14.40
2022-08-05T02:07:32.525Z,14.30
2022-08-05T02:10:02.353Z,14.30
2022-08-05T02:12:39.518Z,14.30
2022-08-05T02:15:12.189Z,14.30
2022-08-05T02:18:32.146Z,14.20
2022-08-05T02:20:58.688Z,14.20
2022-08-05T02:23:29.548Z,14.30
2022-08-05T02:26:03.609Z,14.30
2022-08-05T02:28:38.302Z,14.20
2022-08-05T02:31:21.089Z,14.10
2022-08-05T02:33:57.850Z,14.10
2022-08-05T02:36:31.649Z,14.10
2022-08-05T02:39:00.557Z,14.10
2022-08-05T02:41:43.002Z,14.10
2022-08-05T02:44:18.366Z,14.10
2022-08-05T02:46:58.570Z,14.00
2022-08-05T02:49:37.034Z,14.00
2022-08-05T02:52:08.856Z,14.00
2022-08-05T02:54:41.249Z,14.00
2022-08-05T02:58:11.667Z,14.00
2022-08-05T03:00:03.002Z,14.00
2022-08-05T03:02:34.953Z,14.00
2022-08-05T03:05:04.571Z,14.00
2022-08-05T03:08:00.191Z,14.10
2022-08-05T03:10:24.614Z,14.20
2022-08-05T03:12:54.297Z,14.20
2022-08-05T03:15:24.376Z,14.30
2022-08-05T03:17:58.082Z,14.30
2022-08-05T03:20:27.301Z,14.40
2022-08-05T03:22:57.346Z,14.40
2022-08-05T03:25:32.880Z,14.50
2022-08-05T03:28:03.406Z,14.50
2022-08-05T03:30:35.239Z,14.60
2022-08-05T03:33:04.780Z,14.60
2022-08-05T03:35:40.895Z,14.70
2022-08-05T03:38:12.163Z,14.70
2022-08-05T03:40:48.532Z,14.90
2022-08-05T03:44:08.666Z,15.00
2022-08-05T03:46:05.562Z,15.00
2022-08-05T03:48:36.753Z,15.10
2022-08-05T03:52:37.445Z,15.20
2022-08-05T03:55:50.310Z,15.30
2022-08-05T03:57:18.047Z,15.60
2022-08-05T03:59:57.435Z,15.90
2022-08-05T04:02:38.310Z,16.10
2022-08-05T04:05:13.615Z,16.20
2022-08-05T04:07:57.601Z,16.30
2022-08-05T04:10:37.122Z,16.40
2022-08-05T04:13:08.257Z,16.50
2022-08-05T04:15:36.613Z,16.60
2022-08-05T04:18:09.705Z,16.70
2022-08-05T04:20:41.229Z,16.80
2022-08-05T04:23:16.143Z,17.00
2022-08-05T04:25:57.247Z,17.20
2022-08-05T04:28:30.617Z,17.20
2022-08-05T04:31:00.787Z,17.40
2022-08-05T04:33:54.723Z,17.60
2022-08-05T04:36:45.128Z,17.80
2022-08-05T04:39:04.749Z,18.10
2022-08-05T04:41:37.912Z,18.20
2022-08-05T04:44:08.979Z,18.40
2022-08-05T04:46:36.691Z,18.40
2022-08-05T04:49:04.049Z,18.50
2022-08-05T04:51:32.185Z,18.80
2022-08-05T04:54:01.383Z,18.90
2022-08-05T04:56:34.655Z,18.90
2022-08-05T04:59:17.452Z,19.10
2022-08-05T05:02:35.222Z,19.40
2022-08-05T05:04:38.568Z,19.50
2022-08-05T05:07:23.762Z,19.70
2022-08-05T05:09:52.387Z,20.20
2022-08-05T05:12:21.337Z,20.50
2022-08-05T05:14:51.249Z,20.70
2022-08-05T05:17:23.797Z,20.60
2022-08-05T05:19:56.684Z,20.80
2022-08-05T05:22:26.084Z,21.20
2022-08-05T05:24:57.654Z,21.20
2022-08-05T05:27:45.819Z,21.50
2022-08-05T05:30:31.508Z,21.60
2022-08-05T05:33:14.104Z,21.90
2022-08-05T05:35:48.342Z,22.20
2022-08-05T05:38:22.482Z,22.50
2022-08-05T05:40:56.140Z,22.60
2022-08-05T05:43:57.084Z,22.70
2022-08-05T05:46:17.768Z,22.90
2022-08-05T05:48:48.200Z,23.10
2022-08-05T05:51:20.609Z,23.70
2022-08-05T05:53:57.583Z,24.00
2022-08-05T05:56:34.472Z,23.90
2022-08-05T05:59:05.322Z,24.30
2022-08-05T06:01:39.471Z,24.10
2022-08-05T06:04:14.473Z,24.40
2022-08-05T06:06:47.767Z,24.60
2022-08-05T06:09:25.774Z,24.80
2022-08-05T06:12:03.915Z,25.00
2022-08-05T06:14:32.310Z,25.70
2022-08-05T06:17:02.027Z,25.20
2022-08-05T06:19:56.937Z,25.20
2022-08-05T06:22:33.592Z,25.30
2022-08-05T06:25:59.503Z,25.60
2022-08-05T06:28:10.841Z,25.40
2022-08-05T06:30:41.415Z,26.20
2022-08-05T06:33:10.813Z,26.00
2022-08-05T06:36:03.789Z,25.90
2022-08-05T06:38:36.233Z,26.20
2022-08-05T06:41:07.758Z,26.20
2022-08-05T06:43:58.933Z,26.80
2022-08-05T06:46:30.139Z,27.10
2022-08-05T06:48:59.682Z,27.10
2022-08-05T06:51:30.771Z,27.60
2022-08-05T06:54:03.740Z,27.10
2022-08-05T06:56:34.511Z,27.40
2022-08-05T06:59:09.378Z,27.30
2022-08-05T07:01:40.881Z,27.80
2022-08-05T07:04:14.075Z,28.90
2022-08-05T07:06:41.854Z,28.90
2022-08-05T07:09:09.661Z,28.20
2022-08-05T07:11:40.020Z,28.80
2022-08-05T07:14:29.782Z,28.40
2022-08-05T07:17:59.946Z,29.00
2022-08-05T07:22:39.364Z,29.30
2022-08-05T07:25:23.377Z,29.10
2022-08-05T07:28:03.886Z,29.20
2022-08-05T07:30:39.187Z,29.80
2022-08-05T07:43:51.457Z,29.90
2022-08-05T07:46:24.984Z,29.60
2022-08-05T07:49:03.591Z,29.70
2022-08-05T07:51:48.726Z,29.20
2022-08-05T07:54:30.806Z,30.20
2022-08-05T07:57:02.421Z,29.10
2022-08-05T07:59:48.993Z,30.80
2022-08-05T08:02:17.805Z,32.10
2022-08-05T08:04:49.772Z,32.50
2022-08-05T08:07:22.822Z,31.20
2022-08-05T08:09:53.142Z,30.10
2022-08-05T08:12:37.054Z,30.90
2022-08-05T08:15:15.323Z,31.60
2022-08-05T08:17:49.772Z,31.30
2022-08-05T08:20:59.850Z,32.80
2022-08-05T08:23:59.893Z,33.20
2022-08-05T08:25:59.732Z,32.90
2022-08-05T08:28:36.530Z,32.00
2022-08-05T08:31:06.330Z,32.80
2022-08-05T08:33:37.508Z,33.00
2022-08-05T08:38:57.059Z,32.10
2022-08-05T08:41:51.664Z,31.80
2022-08-05T08:45:23.786Z,31.20
2022-08-05T08:47:47.371Z,31.50
2022-08-05T08:50:14.290Z,32.90
2022-08-05T08:52:51.680Z,32.80
2022-08-05T08:56:03.002Z,31.80
2022-08-05T08:58:12.781Z,32.00
2022-08-05T09:00:43.322Z,32.40
2022-08-05T09:03:12.283Z,32.80
2022-08-05T09:06:08.923Z,32.10
2022-08-05T09:08:31.207Z,32.00
2022-08-05T09:10:59.114Z,32.10
2022-08-05T09:13:31.796Z,32.50
2022-08-05T09:16:17.246Z,32.20
2022-08-05T09:18:44.757Z,31.60
2022-08-05T09:21:20.790Z,31.30
2022-08-05T09:24:10.744Z,31.50
2022-08-05T09:26:38.141Z,31.70
2022-08-05T09:29:11.184Z,31.20
2022-08-05T09:32:42.353Z,30.70
2022-08-05T09:34:51.281Z,30.40
2022-08-05T09:38:12.731Z,30.80
2022-08-05T09:40:30.516Z,30.80
2022-08-05T09:43:01.483Z,30.90
2022-08-05T09:46:07.169Z,31.00
2022-08-05T09:48:26.947Z,31.10
2022-08-05T09:51:01.225Z,31.00
2022-08-05T09:53:54.585Z,30.40
2022-08-05T09:56:39.009Z,30.50
2022-08-05T09:59:08.750Z,30.70
2022-08-05T10:01:40.603Z,30.80
2022-08-05T10:04:16.114Z,30.50
2022-08-05T10:06:59.426Z,30.30
2022-08-05T10:09:29.955Z,30.10
2022-08-05T10:12:30.251Z,30.20
2022-08-05T10:15:27.731Z,30.00
2022-08-05T10:18:06.373Z,30.10
2022-08-05T10:20:44.191Z,30.30
2022-08-05T10:23:55.158Z,30.30
2022-08-05T10:26:14.244Z,30.30
2022-08-05T10:28:45.137Z,29.90
2022-08-05T10:32:52.723Z,30.20
2022-08-05T10:34:03.948Z,30.40
2022-08-05T10:36:39.933Z,30.50
2022-08-05T10:39:24.521Z,30.50
2022-08-05T10:42:13.576Z,31.10
2022-08-05T10:44:46.142Z,31.30
2022-08-05T10:47:25.936Z,30.50
2022-08-05T10:50:31.776Z,30.50
2022-08-05T10:53:00.396Z,30.40
2022-08-05T10:55:28.400Z,30.40
2022-08-05T10:58:11.481Z,30.90
2022-08-05T11:00:42.279Z,30.80
2022-08-05T11:03:23.086Z,30.80
2022-08-05T11:06:15.532Z,30.70
2022-08-05T11:09:18.781Z,30.80
2022-08-05T11:12:00.796Z,31.10
2022-08-05T11:15:11.750Z,32.10
2022-08-05T11:17:59.518Z,32.80
2022-08-05T11:20:46.340Z,32.90
2022-08-05T11:23:33.365Z,32.40
2022-08-05T11:26:28.466Z,34.50
2022-08-05T11:28:58.085Z,34.50
2022-08-05T11:31:56.560Z,34.60
2022-08-05T11:39:55.369Z,35.10
2022-08-05T11:42:29.490Z,35.40
2022-08-05T11:45:05.371Z,35.40
2022-08-05T11:47:49.789Z,35.50
2022-08-05T11:50:18.786Z,35.10
2022-08-05T11:52:48.861Z,35.40
2022-08-05T12:11:40.162Z,37.20
2022-08-05T12:14:10.205Z,37.30
2022-08-05T12:16:39.125Z,39.00
2022-08-05T12:19:08.625Z,38.00
2022-08-05T12:21:51.993Z,37.10
2022-08-05T12:24:24.658Z,37.10
2022-08-05T12:26:54.016Z,36.80
2022-08-05T12:29:23.637Z,37.50
2022-08-05T12:31:54.683Z,36.80
2022-08-05T12:34:28.814Z,36.30
2022-08-05T12:36:58.704Z,36.50
2022-08-05T12:39:28.000Z,35.00
2022-08-05T12:42:02.411Z,35.80
2022-08-05T12:44:34.052Z,37.90
2022-08-05T12:47:02.731Z,38.30
2022-08-05T12:50:04.221Z,38.60
2022-08-05T12:52:38.802Z,38.80
2022-08-05T12:55:26.204Z,37.80
2022-08-05T12:58:48.202Z,36.40
2022-08-05T13:02:02.841Z,35.60
2022-08-05T13:03:41.702Z,34.90
2022-08-05T13:06:16.174Z,35.60
2022-08-05T13:08:46.055Z,35.80
2022-08-05T13:11:25.525Z,35.50
2022-08-05T13:14:20.244Z,35.90
2022-08-05T13:16:57.000Z,37.10
2022-08-05T13:19:26.929Z,38.50
2022-08-05T13:22:14.369Z,39.30
2022-08-05T13:25:05.686Z,38.90
2022-08-05T13:27:50.411Z,38.30
2022-08-05T13:30:33.082Z,37.60
2022-08-05T13:33:03.916Z,36.90
2022-08-05T13:35:42.760Z,36.70
2022-08-05T13:38:20.030Z,35.80
2022-08-05T13:41:00.170Z,36.50
2022-08-05T13:43:43.364Z,36.00
2022-08-05T13:46:12.141Z,35.90
2022-08-05T13:48:57.440Z,36.30
2022-08-05T13:51:36.571Z,36.10
2022-08-05T13:54:13.438Z,36.40
2022-08-05T13:56:45.199Z,38.10
2022-08-05T13:59:23.763Z,39.00
2022-08-05T14:01:59.097Z,38.50
2022-08-05T14:04:49.899Z,39.10
2022-08-05T14:07:56.979Z,37.30
2022-08-05T14:10:19.097Z,38.30
2022-08-05T14:12:55.806Z,37.20
2022-08-05T14:16:06.347Z,36.90
2022-08-05T14:18:17.894Z,37.20
2022-08-05T14:20:49.091Z,37.50
2022-08-05T14:23:25.470Z,38.20
2022-08-05T14:25:59.466Z,38.20
2022-08-05T14:28:29.704Z,38.60
2022-08-05T14:31:01.617Z,37.30
2022-08-05T14:33:57.091Z,36.20
2022-08-05T14:36:21.275Z,34.80
2022-08-05T14:38:50.127Z,33.40
2022-08-05T14:41:18.726Z,32.50
2022-08-05T14:43:59.214Z,32.30
2022-08-05T14:46:32.136Z,32.20
2022-08-05T14:49:06.544Z,31.90
2022-08-05T14:51:42.988Z,31.70
2022-08-05T14:54:27.861Z,31.70
2022-08-05T14:57:00.624Z,31.50
2022-08-05T14:59:35.425Z,31.60
2022-08-05T15:02:15.931Z,31.50
2022-08-05T15:04:44.813Z,31.40
2022-08-05T15:08:08.704Z,31.30
2022-08-05T15:10:01.230Z,31.30
2022-08-05T15:12:40.905Z,31.50
2022-08-05T15:15:54.381Z,31.30
2022-08-05T15:18:06.975Z,31.10
2022-08-05T15:20:34.460Z,31.00
2022-08-05T15:23:10.694Z,31.00
2022-08-05T15:25:53.357Z,31.10
2022-08-05T15:28:27.358Z,31.20
2022-08-05T15:30:56.391Z,31.60
2022-08-05T15:34:05.742Z,32.20
2022-08-05T15:36:16.900Z,33.60
2022-08-05T15:41:00.431Z,35.10
2022-08-05T15:41:56.014Z,36.00
2022-08-05T15:44:28.060Z,36.80
2022-08-05T15:46:58.162Z,35.90
2022-08-05T15:49:53.644Z,34.80
2022-08-05T15:52:16.616Z,34.30
2022-08-05T15:54:44.734Z,34.10
2022-08-05T15:57:14.337Z,34.00
2022-08-05T15:59:43.797Z,33.90
2022-08-05T16:02:14.537Z,33.70
2022-08-05T16:04:43.391Z,33.20
2022-08-05T16:07:11.886Z,33.50
2022-08-05T16:09:41.588Z,34.00
2022-08-05T16:12:09.331Z,33.20
2022-08-05T16:14:38.914Z,32.30
2022-08-05T16:17:06.638Z,31.80
2022-08-05T16:20:04.801Z,31.10
2022-08-05T16:22:27.887Z,30.50
2022-08-05T16:25:08.024Z,30.10
2022-08-05T16:27:47.093Z,29.70
2022-08-05T16:30:28.593Z,29.80
2022-08-05T16:32:56.473Z,29.60
2022-08-05T16:35:24.810Z,29.30
2022-08-05T16:38:03.707Z,29.10
2022-08-05T16:40:47.766Z,28.90
2022-08-05T16:43:24.380Z,28.70
2022-08-05T16:46:05.421Z,28.50
2022-08-05T16:48:38.917Z,28.40
2022-08-05T16:51:09.762Z,28.40
2022-08-05T16:54:03.279Z,28.30
2022-08-05T16:56:29.364Z,28.20
2022-08-05T16:58:57.819Z,28.30
2022-08-05T17:01:25.418Z,28.30
2022-08-05T17:03:53.016Z,28.50
2022-08-05T17:06:24.547Z,28.60
2022-08-05T17:08:54.356Z,28.70
2022-08-05T17:11:25.403Z,28.70
2022-08-05T17:14:00.622Z,28.50
2022-08-05T17:16:37.081Z,28.40
2022-08-05T17:19:07.658Z,28.40
2022-08-05T17:21:39.515Z,28.30
2022-08-05T17:24:19.704Z,28.20
2022-08-05T17:26:57.937Z,28.20
2022-08-05T17:29:33.887Z,28.00
2022-08-05T17:32:17.069Z,27.90
2022-08-05T17:34:48.135Z,27.90
2022-08-05T17:37:39.755Z,27.70
2022-08-05T17:40:10.247Z,27.70
2022-08-05T17:42:51.088Z,27.60
2022-08-05T17:45:22.441Z,27.40
2022-08-05T17:47:55.718Z,27.30
2022-08-05T17:50:28.178Z,27.30
2022-08-05T17:53:04.521Z,27.20
2022-08-05T17:55:37.588Z,27.10
2022-08-05T17:58:09.339Z,27.00
2022-08-05T18:00:44.267Z,26.80
2022-08-05T18:06:05.899Z,26.70
2022-08-05T18:08:44.136Z,26.60
2022-08-05T18:11:23.891Z,26.10
2022-08-05T18:13:53.059Z,26.00
2022-08-05T18:16:20.757Z,25.60
2022-08-05T18:18:50.063Z,25.30
2022-08-05T18:21:19.639Z,25.00
2022-08-05T18:23:48.702Z,24.70
2022-08-05T18:26:20.986Z,24.40
2022-08-05T18:28:56.711Z,24.20
2022-08-05T18:31:24.433Z,24.00
2022-08-05T18:33:52.961Z,23.90
2022-08-05T18:36:27.805Z,23.80
2022-08-05T18:38:56.027Z,23.90
2022-08-05T18:41:56.684Z,24.00
2022-08-05T18:44:11.607Z,23.70
2022-08-05T18:46:41.034Z,23.50
2022-08-05T18:49:30.368Z,23.40
2022-08-05T18:52:16.621Z,23.40
2022-08-05T18:54:45.899Z,23.20
2022-08-05T18:57:15.316Z,23.20
2022-08-05T19:00:03.048Z,23.10
2022-08-05T19:02:30.436Z,23.10
2022-08-05T19:07:48.325Z,22.90
2022-08-05T19:10:17.448Z,22.80
2022-08-05T19:12:46.050Z,22.70
2022-08-05T19:15:57.292Z,22.70
2022-08-05T19:20:46.643Z,22.50
2022-08-05T19:23:22.615Z,22.40
2022-08-05T19:26:03.527Z,21.60
2022-08-05T19:28:35.232Z,22.20
2022-08-05T19:31:05.782Z,22.10
2022-08-05T19:38:37.451Z,22.00
2022-08-05T19:41:06.714Z,22.10
2022-08-05T19:44:06.984Z,22.00
2022-08-05T19:46:30.197Z,21.70
2022-08-05T19:49:01.207Z,22.00
2022-08-05T19:52:05.917Z,21.90
2022-08-05T19:54:31.170Z,21.80
2022-08-05T19:57:02.250Z,22.30
2022-08-05T20:00:00.534Z,21.70
2022-08-05T20:02:19.272Z,22.20
2022-08-05T20:04:48.449Z,21.90
2022-08-05T20:07:16.099Z,21.90
2022-08-05T20:10:13.648Z,21.90
2022-08-05T20:12:46.077Z,22.20
2022-08-05T20:15:48.058Z,21.70
2022-08-05T20:18:10.470Z,20.30
2022-08-05T20:20:57.417Z,21.80
2022-08-05T20:23:39.702Z,21.50
2022-08-05T20:26:15.437Z,21.40
2022-08-05T20:28:52.836Z,21.40
2022-08-05T20:31:22.911Z,21.30
2022-08-05T20:33:56.053Z,21.20
2022-08-05T20:36:24.438Z,21.20
2022-08-05T20:38:58.056Z,21.20
2022-08-05T20:41:43.409Z,21.10
2022-08-05T20:44:28.970Z,21.10
2022-08-05T20:47:03.205Z,21.00
2022-08-05T20:49:37.825Z,20.90
2022-08-05T20:52:08.043Z,21.00
2022-08-05T20:54:42.905Z,21.00
2022-08-05T20:57:14.313Z,20.90
2022-08-05T20:59:46.086Z,21.00
2022-08-05T21:02:29.877Z,21.00
2022-08-05T21:04:57.374Z,20.80
2022-08-05T21:07:24.753Z,20.80
2022-08-05T21:10:13.792Z,20.80
2022-08-05T21:12:41.506Z,20.70
2022-08-05T21:15:26.247Z,20.70
2022-08-05T21:18:01.290Z,20.60
2022-08-05T21:20:32.889Z,20.70
2022-08-05T21:23:00.979Z,20.60
2022-08-05T21:25:33.942Z,20.60
2022-08-05T21:28:03.360Z,20.60
2022-08-05T21:30:31.938Z,20.60
2022-08-05T21:33:01.554Z,20.50
2022-08-05T21:35:55.353Z,20.50
2022-08-05T21:38:17.756Z,20.50
2022-08-05T21:40:45.188Z,20.40
2022-08-05T21:43:24.026Z,20.40
2022-08-05T21:45:56.721Z,20.30
2022-08-05T21:48:28.507Z,20.20
2022-08-05T21:50:57.494Z,20.20
2022-08-05T21:53:27.636Z,20.20
2022-08-05T21:56:04.707Z,20.20
2022-08-05T21:58:34.056Z,20.30
2022-08-05T22:01:05.268Z,20.30
2022-08-05T22:03:51.835Z,20.30
2022-08-05T22:06:22.411Z,20.30
2022-08-05T22:08:52.520Z,20.20
2022-08-05T22:11:35.192Z,20.20
2022-08-05T22:14:18.470Z,20.30
2022-08-05T22:16:56.923Z,20.40
2022-08-05T22:20:01.089Z,20.30
2022-08-05T22:22:16.196Z,20.30
2022-08-05T22:26:10.149Z,20.20
2022-08-05T22:28:20.829Z,20.20
2022-08-05T22:30:55.972Z,20.20
2022-08-05T22:33:57.255Z,20.10
2022-08-05T22:36:14.439Z,20.10
2022-08-05T22:38:48.070Z,20.10
2022-08-05T22:41:26.369Z,20.10
2022-08-05T22:44:04.987Z,20.20
2022-08-05T22:46:32.760Z,20.30
2022-08-05T22:49:00.131Z,20.40
2022-08-05T22:52:02.954Z,20.50
2022-08-05T22:54:14.804Z,20.60
2022-08-05T22:56:42.267Z,20.60
2022-08-05T22:59:43.872Z,20.70
2022-08-05T23:02:04.312Z,20.80
2022-08-05T23:04:34.108Z,20.90
2022-08-05T23:07:01.739Z,20.90
2022-08-05T23:09:57.610Z,21.00
2022-08-05T23:12:18.412Z,21.10
2022-08-05T23:14:52.150Z,21.10
2022-08-05T23:17:32.620Z,21.20
2022-08-05T23:20:05.137Z,21.30
2022-08-05T23:22:32.992Z,21.30
2022-08-05T23:25:00.524Z,21.30
2022-08-05T23:27:28.863Z,21.30
2022-08-05T23:30:01.105Z,21.30
2022-08-05T23:32:35.412Z,21.40
2022-08-05T23:35:02.765Z,21.40
2022-08-05T23:37:34.272Z,21.50
2022-08-05T23:40:07.486Z,21.40
2022-08-05T23:42:38.006Z,21.40
2022-08-05T23:45:14.448Z,21.40
2022-08-05T23:47:47.681Z,21.50
2022-08-05T23:50:17.136Z,21.50
2022-08-05T23:52:50.007Z,21.50
2022-08-05T23:55:19.324Z,21.40
2022-08-05T23:57:48.811Z,21.40
